createdAt,value
2019-05-03T00:04:15.604Z,100048
2019-05-03T00:09:38.424Z,100043
2019-05-03T00:15:02.680Z,100043
2019-05-03T00:20:23.902Z,100048
2019-05-03T00:25:46.586Z,100055
2019-05-03T00:31:10.182Z,100058
2019-05-03T00:36:33.000Z,100055
2019-05-03T00:41:56.550Z,100052
2019-05-03T00:47:22.150Z,100051
2019-05-03T00:52:43.939Z,100054
2019-05-03T00:58:07.529Z,100053
2019-05-03T01:03:30.232Z,100053
2019-05-03T01:08:53.652Z,100059
2019-05-03T01:14:16.335Z,100071
2019-05-03T01:19:40.054Z,100070
2019-05-03T01:25:03.621Z,100069
2019-05-03T01:30:26.325Z,100073
2019-05-03T01:35:51.778Z,100067
2019-05-03T01:41:13.713Z,100073
2019-05-03T01:46:36.356Z,100071
2019-05-03T01:52:02.081Z,100073
2019-05-03T01:57:22.639Z,100073
2019-05-03T02:02:45.353Z,100079
2019-05-03T02:08:08.011Z,100086
2019-05-03T02:13:32.091Z,100090
2019-05-03T02:18:53.378Z,100089
2019-05-03T02:24:16.688Z,100094
2019-05-03T02:29:41.722Z,100095
2019-05-03T02:35:02.945Z,100084
2019-05-03T02:40:26.032Z,100095
2019-05-03T02:45:48.690Z,100106
2019-05-03T02:51:11.402Z,100119
2019-05-03T02:56:35.667Z,100121
2019-05-03T03:01:56.737Z,100120
2019-05-03T03:07:19.398Z,100123
2019-05-03T03:12:46.403Z,100123
2019-05-03T03:18:06.690Z,100126
2019-05-03T03:23:29.372Z,100132
2019-05-03T03:28:55.679Z,100139
2019-05-03T03:34:18.122Z,100132
2019-05-03T03:39:39.056Z,100138
2019-05-03T03:45:05.789Z,100141
2019-05-03T03:50:26.007Z,100147
2019-05-03T03:55:48.310Z,100157
2019-05-03T04:01:10.987Z,100165
2019-05-03T04:06:35.785Z,100175
2019-05-03T04:11:56.876Z,100190
2019-05-03T04:17:19.637Z,100196
2019-05-03T04:22:45.219Z,100198
2019-05-03T04:28:06.733Z,100205
2019-05-03T04:33:29.409Z,100209
2019-05-03T04:38:52.190Z,100217
2019-05-03T04:44:15.733Z,100214
2019-05-03T04:49:38.274Z,100221
2019-05-03T04:55:01.068Z,100222
2019-05-03T05:00:25.553Z,100233
2019-05-03T05:05:47.606Z,100243
2019-05-03T05:11:10.681Z,100248
2019-05-03T05:16:35.552Z,100255
2019-05-03T05:21:57.926Z,100260
2019-05-03T05:27:21.651Z,100268
2019-05-03T05:32:45.366Z,100270
2019-05-03T05:38:06.904Z,100269
2019-05-03T05:43:29.538Z,100272
2019-05-03T05:48:53.183Z,100268
2019-05-03T05:54:15.842Z,100271
2019-05-03T05:59:38.546Z,100275
2019-05-03T06:05:01.136Z,100279
2019-05-03T06:10:24.816Z,100278
2019-05-03T06:15:47.399Z,100283
2019-05-03T06:21:10.155Z,100287
2019-05-03T06:26:34.594Z,100283
2019-05-03T06:31:56.442Z,100282
2019-05-03T06:37:19.079Z,100287
2019-05-03T06:42:52.236Z,100283
2019-05-03T06:48:07.349Z,100279
2019-05-03T06:53:29.927Z,100276
2019-05-03T06:58:52.634Z,100273
2019-05-03T07:04:15.361Z,100275
2019-05-03T07:09:37.893Z,100277
2019-05-03T07:15:00.505Z,100279
2019-05-03T07:20:25.273Z,100271
2019-05-03T07:25:45.966Z,100264
2019-05-03T07:31:08.597Z,100277
2019-05-03T07:36:32.232Z,100284
2019-05-03T07:41:55.129Z,100285
2019-05-03T07:47:17.571Z,100279
2019-05-03T07:52:41.219Z,100279
2019-05-03T07:58:04.595Z,100276
2019-05-03T08:03:26.612Z,100279
2019-05-03T08:08:50.065Z,100286
2019-05-03T08:14:15.824Z,100280
2019-05-03T08:19:36.261Z,100286
2019-05-03T08:24:58.950Z,100284
2019-05-03T08:30:22.788Z,100282
2019-05-03T08:35:46.729Z,100275
2019-05-03T08:41:09.501Z,100276
2019-05-03T08:46:32.117Z,100281
2019-05-03T08:51:55.062Z,100283
2019-05-03T08:57:17.475Z,100287
2019-05-03T09:02:40.170Z,100273
2019-05-03T09:08:05.393Z,100269
2019-05-03T09:13:25.891Z,100273
2019-05-03T09:18:48.549Z,100280
2019-05-03T09:24:12.208Z,100272
2019-05-03T09:29:43.051Z,100270
2019-05-03T09:34:58.469Z,100253
2019-05-03T09:40:21.135Z,100263
2019-05-03T09:45:45.647Z,100265
2019-05-03T09:51:06.496Z,100271
2019-05-03T09:56:29.196Z,100276
2019-05-03T10:01:54.725Z,100257
2019-05-03T10:07:15.711Z,100261
2019-05-03T10:12:38.360Z,100248
2019-05-03T10:18:01.218Z,100242
2019-05-03T10:23:25.085Z,100251
2019-05-03T10:28:47.926Z,100252
2019-05-03T10:34:10.553Z,100253
2019-05-03T10:39:33.152Z,100258
2019-05-03T10:44:55.757Z,100247
2019-05-03T10:50:18.537Z,100247
2019-05-03T10:55:42.143Z,100240
2019-05-03T11:01:05.158Z,100242
2019-05-03T11:06:27.467Z,100235
2019-05-03T11:11:50.101Z,100233
2019-05-03T11:17:14.730Z,100244
2019-05-03T11:22:35.379Z,100217
2019-05-03T11:27:58.078Z,100215
2019-05-03T11:33:20.672Z,100219
2019-05-03T11:38:45.321Z,100216
2019-05-03T11:44:05.946Z,100210
2019-05-03T11:49:28.686Z,100220
2019-05-03T11:54:52.433Z,100213
2019-05-03T12:00:15.090Z,100206
2019-05-03T12:05:37.775Z,100204
2019-05-03T12:11:01.501Z,100192
2019-05-03T12:16:54.646Z,100193
2019-05-03T12:21:49.426Z,100197
2019-05-03T12:27:10.548Z,100186
2019-05-03T12:32:34.567Z,100181
2019-05-03T12:37:55.810Z,100187
2019-05-03T12:43:17.419Z,100178
2019-05-03T12:48:40.189Z,100175
2019-05-03T12:54:04.822Z,100168
2019-05-03T12:59:26.663Z,100165
2019-05-03T13:04:48.721Z,100169
2019-05-03T13:10:11.337Z,100157
2019-05-03T13:15:35.270Z,100151
2019-05-03T13:20:57.550Z,100160
2019-05-03T13:26:20.440Z,100141
2019-05-03T13:31:55.600Z,100154
2019-05-03T13:37:06.869Z,100146
2019-05-03T13:42:29.527Z,100133
2019-05-03T13:47:55.226Z,100134
2019-05-03T13:53:17.722Z,100132
2019-05-03T13:58:40.396Z,100128
2019-05-03T14:04:05.141Z,100127
2019-05-03T14:09:26.362Z,100129
2019-05-03T14:14:48.963Z,100107
2019-05-03T14:20:14.609Z,100111
2019-05-03T14:25:35.233Z,100099
2019-05-03T14:30:59.534Z,100108
2019-05-03T14:36:25.049Z,100102
2019-05-03T14:41:47.859Z,100099
2019-05-03T14:47:11.155Z,100100
2019-05-03T14:52:34.959Z,100098
2019-05-03T14:57:57.389Z,100085
2019-05-03T15:03:20.027Z,100092
2019-05-03T15:08:42.658Z,100091
2019-05-03T15:14:06.295Z,100084
2019-05-03T15:19:29.979Z,100078
2019-05-03T15:24:54.414Z,100081
2019-05-03T15:30:15.615Z,100077
2019-05-03T15:35:37.914Z,100085
2019-05-03T15:41:01.722Z,100065
2019-05-03T15:46:25.149Z,100062
2019-05-03T15:51:46.902Z,100071
2019-05-03T15:57:09.629Z,100065
2019-05-03T16:02:33.029Z,100065
2019-05-03T16:07:55.669Z,100058
2019-05-03T16:13:18.261Z,100052
2019-05-03T16:18:40.997Z,100054
2019-05-03T16:24:04.957Z,100053
2019-05-03T16:29:26.422Z,100066
2019-05-03T16:34:49.633Z,100059
2019-05-03T16:40:14.144Z,100060
2019-05-03T16:45:35.893Z,100062
2019-05-03T16:50:58.514Z,100069
2019-05-03T16:56:21.151Z,100068
2019-05-03T17:01:44.472Z,100064
2019-05-03T17:07:06.389Z,100057
2019-05-03T17:12:29.994Z,100061
2019-05-03T17:17:52.659Z,100066
2019-05-03T17:23:15.492Z,100058
2019-05-03T17:28:37.918Z,100062
2019-05-03T17:34:00.605Z,100057
2019-05-03T17:39:23.176Z,100071
2019-05-03T17:44:45.793Z,100069
2019-05-03T17:50:08.390Z,100069
2019-05-03T17:55:32.011Z,100069
2019-05-03T18:00:56.167Z,100068
2019-05-03T18:06:17.283Z,100063
2019-05-03T18:11:40.096Z,100057
2019-05-03T18:17:02.803Z,100067
2019-05-03T18:22:25.500Z,100065
2019-05-03T18:27:48.128Z,100064
2019-05-03T18:33:10.817Z,100068
2019-05-03T18:38:36.191Z,100066
2019-05-03T18:43:58.864Z,100063
2019-05-03T18:49:24.752Z,100063
2019-05-03T18:54:45.668Z,100067
2019-05-03T19:00:08.361Z,100073
2019-05-03T19:05:30.933Z,100066
2019-05-03T19:10:55.146Z,100076
2019-05-03T19:16:16.294Z,100076
2019-05-03T19:21:38.895Z,100074
2019-05-03T19:27:02.600Z,100069
2019-05-03T19:32:28.269Z,100073
2019-05-03T19:37:49.051Z,100067
2019-05-03T19:43:12.788Z,100073
2019-05-03T19:48:35.482Z,100075
2019-05-03T19:53:58.242Z,100077
2019-05-03T19:59:20.886Z,100081
2019-05-03T20:04:43.877Z,100082
2019-05-03T20:10:06.503Z,100080
2019-05-03T20:15:29.134Z,100079
2019-05-03T20:20:51.753Z,100073
2019-05-03T20:26:15.061Z,100073
2019-05-03T20:31:36.980Z,100069
2019-05-03T20:36:59.717Z,100071
2019-05-03T20:42:24.624Z,100068
2019-05-03T20:47:46.237Z,100066
2019-05-03T20:53:09.096Z,100065
2019-05-03T20:58:31.969Z,100057
2019-05-03T21:03:55.688Z,100059
2019-05-03T21:09:18.280Z,100062
2019-05-03T21:14:41.107Z,100061
2019-05-03T21:20:03.834Z,100055
2019-05-03T21:25:25.554Z,100054
2019-05-03T21:30:49.107Z,100048
2019-05-03T21:36:14.940Z,100039
2019-05-03T21:41:38.078Z,100044
2019-05-03T21:46:59.610Z,100042
2019-05-03T21:52:24.647Z,100038
2019-05-03T21:57:46.553Z,100039
2019-05-03T22:03:09.170Z,100031
2019-05-03T22:08:34.923Z,100033
2019-05-03T22:13:57.016Z,100046
2019-05-03T22:19:19.496Z,100046
2019-05-03T22:24:42.675Z,100051
2019-05-03T22:30:05.592Z,100036
2019-05-03T22:35:28.888Z,100039
2019-05-03T22:40:52.623Z,100032
2019-05-03T22:46:16.118Z,100025
2019-05-03T22:51:38.736Z,100023
2019-05-03T22:57:02.372Z,100017
2019-05-03T23:02:25.079Z,100018
2019-05-03T23:07:47.612Z,100012
2019-05-03T23:13:10.299Z,100012
2019-05-03T23:18:34.781Z,100011
2019-05-03T23:23:55.569Z,100003
2019-05-03T23:29:20.023Z,100002
2019-05-03T23:34:42.677Z,99996
2019-05-03T23:40:05.364Z,99988
2019-05-03T23:45:28.056Z,99994
2019-05-03T23:50:54.745Z,99986
2019-05-03T23:56:15.784Z,99984
